Time;durP1;ratioP1;P1;durP2;ratioP2;P2;SDS_P1;SDS_P2;PMS_P1;PMS_P2;Temp;Humidity;BMP_temperature;BMP_pressure;BME280_temperature;BME280_humidity;BME280_pressure;Samples;Min_cycle;Max_cycle;Signal;HPM_P1;HPM_P2
2022/06/13 00:00:07;;;;;;;;;;;;;;;18.35;76.96;100057.06;1088169;54;19967;-80
2022/06/13 00:01:12;;;;;;;;;;;;;;;18.29;76.78;100052.44;1091906;39;20451;-81
2022/06/13 00:02:16;;;;;;;;;;;;;;;18.29;76.34;100052.44;1089246;47;19974;-82
2022/06/13 00:03:19;;;;;;;;;;;;;;;18.30;75.75;100043.28;1088261;54;19943;-80
2022/06/13 00:04:20;;;;;;;;;;;;;;;18.37;76.09;100047.69;1088207;54;19941;-83
2022/06/13 00:05:24;;;;;;;;;;;;;;;18.42;74.90;100039.00;1088119;54;19949;-80
2022/06/13 00:06:28;;;;;;;;;;;;;;;18.48;75.03;100040.94;1087797;54;19967;-81
2022/06/13 00:07:29;;;;;;;;;;;;;;;18.52;74.96;100038.66;1092511;39;20160;-81
2022/06/13 00:08:33;;;;;;;;;;;;;;;18.51;76.34;100040.53;1088015;54;19950;-81
2022/06/13 00:09:34;;;;;;;;;;;;;;;18.54;75.46;100034.72;1088188;54;19942;-81
2022/06/13 00:10:38;;;;;;;;;;;;;;;18.55;74.34;100030.97;1088529;47;19942;-82
2022/06/13 00:11:39;;;;;;;;;;;;;;;18.55;74.11;100028.28;1088198;54;20006;-83
2022/06/13 00:12:44;;;;;;;;;;;;;;;18.56;73.27;100026.41;1088195;54;19946;-82
2022/06/13 00:13:48;;;;;;;;;;;;;;;18.56;73.54;100034.53;1088277;54;19953;-83
2022/06/13 00:14:52;;;;;;;;;;;;;;;18.52;73.05;100034.06;1089141;47;19927;-83
2022/06/13 00:15:53;;;;;;;;;;;;;;;18.54;73.14;100025.78;1090067;47;19930;-81
2022/06/13 00:16:56;;;;;;;;;;;;;;;18.51;73.49;100029.72;1089891;47;19923;-83
2022/06/13 00:18:00;;;;;;;;;;;;;;;18.53;73.17;100022.22;1088376;54;19945;-81
2022/06/13 00:19:04;;;;;;;;;;;;;;;18.51;74.73;100024.31;1088374;54;19930;-83
2022/06/13 00:20:06;;;;;;;;;;;;;;;18.49;73.36;100028.22;1088219;54;19946;-81
2022/06/13 00:21:10;;;;;;;;;;;;;;;18.49;72.65;100036.34;1088366;54;19935;-82
2022/06/13 00:22:11;;;;;;;;;;;;;;;18.46;73.82;100034.03;1088385;54;19950;-81
2022/06/13 00:23:14;;;;;;;;;;;;;;;18.47;73.71;100031.13;1090176;47;19923;-80
2022/06/13 00:24:16;;;;;;;;;;;;;;;18.46;74.63;100026.75;1088391;47;19970;-84
2022/06/13 00:25:19;;;;;;;;;;;;;;;18.46;74.79;100021.34;1088298;54;19938;-80
2022/06/13 00:26:21;;;;;;;;;;;;;;;18.46;75.20;100021.34;1089420;47;19939;-82
2022/06/13 00:27:25;;;;;;;;;;;;;;;18.44;74.86;100017.97;1088438;54;19943;-81
2022/06/13 00:28:26;;;;;;;;;;;;;;;18.43;73.94;100010.06;1091509;47;19962;-81
2022/06/13 00:29:30;;;;;;;;;;;;;;;18.41;73.67;100010.28;1088400;54;19923;-81
2022/06/13 00:30:31;;;;;;;;;;;;;;;18.43;73.82;100008.19;1088285;54;19934;-82
2022/06/13 00:31:35;;;;;;;;;;;;;;;18.43;75.25;100010.06;1091609;47;19939;-80
2022/06/13 00:32:36;;;;;;;;;;;;;;;18.44;75.25;100007.16;1088381;54;19950;-81
2022/06/13 00:33:43;;;;;;;;;;;;;;;18.40;76.20;100012.13;1088263;54;19966;-80
2022/06/13 00:34:44;;;;;;;;;;;;;;;18.36;76.46;100004.59;1088168;54;19939;-81
2022/06/13 00:35:48;;;;;;;;;;;;;;;18.35;76.42;100001.06;1087791;54;19945;-81
2022/06/13 00:36:49;;;;;;;;;;;;;;;18.40;75.75;99995.06;1087859;54;19930;-81
2022/06/13 00:37:53;;;;;;;;;;;;;;;18.41;75.48;99994.03;1088046;47;19939;-81
2022/06/13 00:38:55;;;;;;;;;;;;;;;18.41;74.35;99985.94;1087875;54;19942;-88
2022/06/13 00:39:58;;;;;;;;;;;;;;;18.40;74.88;99984.25;1087738;54;19939;-81
2022/06/13 00:41:00;;;;;;;;;;;;;;;18.40;74.56;99974.25;1087768;54;19943;-80
2022/06/13 00:42:04;;;;;;;;;;;;;;;18.41;74.19;99980.50;1087739;54;19994;-80
2022/06/13 00:43:06;;;;;;;;;;;;;;;18.42;74.80;99987.56;1087772;54;19967;-81
2022/06/13 00:44:10;;;;;;;;;;;;;;;18.42;76.52;99989.44;1087782;54;19942;-82
2022/06/13 00:45:15;;;;;;;;;;;;;;;18.35;76.35;99990.25;1088620;46;19953;-81
2022/06/13 00:46:21;;;;;;;;;;;;;;;18.32;76.63;99992.53;1089573;31;20617;-80
2022/06/13 00:47:22;;;;;;;;;;;;;;;18.29;76.43;99990.19;1088101;54;19962;-80
2022/06/13 00:48:29;;;;;;;;;;;;;;;18.26;77.07;99982.47;1088248;46;19955;-80
2022/06/13 00:49:37;;;;;;;;;;;;;;;18.18;77.29;99986.19;1088064;54;19958;-81
2022/06/13 00:50:46;;;;;;;;;;;;;;;18.17;77.90;99990.72;1088037;54;20835;-80
2022/06/13 00:51:48;;;;;;;;;;;;;;;18.11;77.29;99991.53;1088088;54;19950;-79
2022/06/13 00:52:55;;;;;;;;;;;;;;;18.17;78.26;99985.31;1094929;39;20169;-80
2022/06/13 00:53:56;;;;;;;;;;;;;;;18.09;78.27;99997.13;1088057;54;20273;-81
2022/06/13 00:55:00;;;;;;;;;;;;;;;18.05;79.10;100000.41;1088519;46;20641;-80
2022/06/13 00:56:03;;;;;;;;;;;;;;;18.01;79.58;100004.53;1088131;54;19966;-79
2022/06/13 00:57:07;;;;;;;;;;;;;;;17.97;79.64;100000.53;1090448;39;20582;-80
2022/06/13 00:58:13;;;;;;;;;;;;;;;17.92;79.89;100010.06;1088517;54;19939;-81
2022/06/13 00:59:16;;;;;;;;;;;;;;;17.87;79.99;100009.78;1090127;46;19943;-79
2022/06/13 01:00:21;;;;;;;;;;;;;;;17.87;80.41;100004.38;1088453;54;19942;-79
2022/06/13 01:01:23;;;;;;;;;;;;;;;17.80;80.26;100003.50;1088483;54;19927;-79
2022/06/13 01:02:27;;;;;;;;;;;;;;;17.80;80.98;100008.91;1088518;54;19927;-81
2022/06/13 01:03:28;;;;;;;;;;;;;;;17.71;81.40;100013.56;1090037;46;19927;-79
2022/06/13 01:04:32;;;;;;;;;;;;;;;17.71;81.78;100015.47;1091227;46;19950;-79
2022/06/13 01:05:39;;;;;;;;;;;;;;;17.70;81.83;100017.34;1088418;54;19983;-78
2022/06/13 01:06:44;;;;;;;;;;;;;;;17.70;82.23;100014.63;1088227;54;20253;-80
2022/06/13 01:07:45;;;;;;;;;;;;;;;17.70;81.43;100016.47;1091811;39;20149;-80
2022/06/13 01:08:49;;;;;;;;;;;;;;;17.71;81.35;100012.75;1088608;54;19935;-83
2022/06/13 01:11:19;;;;;;;;;;;;;;;17.79;81.07;100009.91;1088800;54;19926;-83
2022/06/13 01:12:20;;;;;;;;;;;;;;;17.79;81.46;100015.31;1088621;54;19934;-78
2022/06/13 01:13:25;;;;;;;;;;;;;;;17.77;81.11;100017.38;1088680;46;19947;-82
2022/06/13 01:14:36;;;;;;;;;;;;;;;17.87;81.21;100012.50;1088662;54;19943;-78
2022/06/13 01:15:48;;;;;;;;;;;;;;;17.95;80.99;100014.25;1088735;54;19936;-81
2022/06/13 01:16:56;;;;;;;;;;;;;;;18.03;79.56;100016.00;1088482;54;19930;-82
2022/06/13 01:18:07;;;;;;;;;;;;;;;18.11;79.13;100018.56;1090212;46;19935;-80
2022/06/13 01:19:26;;;;;;;;;;;;;;;18.02;80.14;100019.75;1088390;54;19938;-79
2022/06/13 01:20:45;;;;;;;;;;;;;;;18.00;80.40;100016.38;1087990;54;19938;-77
2022/06/13 01:21:52;;;;;;;;;;;;;;;17.92;80.72;100020.88;1087873;54;19939;-77
2022/06/13 01:23:14;;;;;;;;;;;;;;;18.06;80.30;100015.59;1088152;54;19943;-78
2022/06/13 01:24:34;;;;;;;;;;;;;;;18.09;80.61;100010.63;1088082;54;19943;-77
2022/06/13 01:25:44;;;;;;;;;;;;;;;18.13;80.08;100005.69;1087942;54;19982;-79
2022/06/13 01:26:58;;;;;;;;;;;;;;;18.14;80.31;100001.94;1088086;54;19942;-78
2022/06/13 01:28:11;;;;;;;;;;;;;;;18.22;80.84;99999.13;1088049;54;19975;-80
2022/06/13 01:29:29;;;;;;;;;;;;;;;18.22;79.25;100000.97;1088016;54;19950;-78
2022/06/13 01:30:47;;;;;;;;;;;;;;;18.26;79.28;99999.56;1087886;54;19967;-78
2022/06/13 01:31:55;;;;;;;;;;;;;;;18.31;78.58;100007.09;1088478;46;19955;-82
2022/06/13 01:33:00;;;;;;;;;;;;;;;18.33;78.05;100002.28;1087979;54;19943;-82
2022/06/13 01:34:06;;;;;;;;;;;;;;;18.31;78.30;99999.78;1087982;54;20047;-79
2022/06/13 01:35:18;;;;;;;;;;;;;;;18.32;78.36;99992.53;1088917;46;19942;-82
2022/06/13 01:36:34;;;;;;;;;;;;;;;18.27;78.76;99992.25;1087984;54;19949;-81
2022/06/13 01:37:43;;;;;;;;;;;;;;;18.31;77.55;99993.56;1088032;54;19973;-81
2022/06/13 01:38:57;;;;;;;;;;;;;;;18.30;77.67;99992.69;1087962;54;19990;-78
2022/06/13 01:40:05;;;;;;;;;;;;;;;18.24;78.17;99994.31;1087912;54;19942;-81
2022/06/13 01:41:10;;;;;;;;;;;;;;;18.17;78.60;99996.13;1088004;54;19939;-79
2022/06/13 01:42:17;;;;;;;;;;;;;;;18.19;78.81;100001.34;1088020;54;19977;-80
2022/06/13 01:43:25;;;;;;;;;;;;;;;18.26;77.59;99999.56;1087933;54;19945;-79
2022/06/13 01:44:32;;;;;;;;;;;;;;;18.31;78.51;99999.78;1089166;46;19945;-78
2022/06/13 01:45:41;;;;;;;;;;;;;;;18.13;79.92;100007.56;1089408;39;20616;-80
2022/06/13 01:46:46;;;;;;;;;;;;;;;18.02;80.14;100003.53;1087990;54;19943;-79
2022/06/13 01:47:55;;;;;;;;;;;;;;;17.96;80.36;100012.34;1087957;54;19998;-78
2022/06/13 01:48:59;;;;;;;;;;;;;;;17.93;80.82;100011.75;1087952;54;19950;-80
2022/06/13 01:50:08;;;;;;;;;;;;;;;17.93;81.12;100011.75;1088192;39;20443;-78
2022/06/13 01:51:12;;;;;;;;;;;;;;;17.89;80.86;100015.84;1087988;54;19942;-79
2022/06/13 01:52:21;;;;;;;;;;;;;;;17.87;81.32;100020.59;1087998;54;19942;-79
2022/06/13 01:53:27;;;;;;;;;;;;;;;17.93;81.07;100017.16;1089983;39;20153;-79
2022/06/13 01:54:33;;;;;;;;;;;;;;;17.94;81.02;100026.09;1087916;54;19945;-78
2022/06/13 01:55:39;;;;;;;;;;;;;;;17.88;81.62;100024.16;1087972;54;19943;-78
2022/06/13 01:56:48;;;;;;;;;;;;;;;17.88;80.74;100021.47;1088031;54;19935;-79
2022/06/13 01:57:51;;;;;;;;;;;;;;;17.87;81.33;100017.91;1087819;54;19938;-78
2022/06/13 01:58:57;;;;;;;;;;;;;;;17.87;81.39;100017.91;1088649;39;20615;-79
2022/06/13 02:00:04;;;;;;;;;;;;;;;17.84;82.10;100007.50;1087841;54;19942;-78
2022/06/13 02:01:12;;;;;;;;;;;;;;;17.87;82.05;100009.78;1087941;54;19949;-78
2022/06/13 02:02:16;;;;;;;;;;;;;;;17.82;82.35;100014.94;1088425;46;19949;-80
2022/06/13 02:03:26;;;;;;;;;;;;;;;17.90;82.65;100008.59;1088480;46;19938;-78
2022/06/13 02:04:31;;;;;;;;;;;;;;;17.88;82.41;100010.66;1087961;54;19939;-79
2022/06/13 02:05:38;;;;;;;;;;;;;;;17.98;81.65;100008.47;1087916;54;19943;-78
2022/06/13 02:06:41;;;;;;;;;;;;;;;18.03;80.75;100010.59;1088045;47;20578;-79
2022/06/13 02:07:47;;;;;;;;;;;;;;;18.02;81.05;100009.75;1088010;54;19950;-80
2022/06/13 02:08:53;;;;;;;;;;;;;;;18.01;80.47;100007.25;1088031;54;19966;-78
2022/06/13 02:09:58;;;;;;;;;;;;;;;17.98;81.42;100007.63;1087932;54;19942;-78
2022/06/13 02:11:04;;;;;;;;;;;;;;;17.90;81.32;100006.72;1087974;54;19942;-82
2022/06/13 02:12:05;;;;;;;;;;;;;;;17.97;81.74;100006.81;1088237;54;19947;-81
2022/06/13 02:13:11;;;;;;;;;;;;;;;17.96;81.77;100007.84;1088385;54;19982;-82
2022/06/13 02:14:15;;;;;;;;;;;;;;;17.88;82.10;100008.75;1088408;54;19942;-83
2022/06/13 02:15:21;;;;;;;;;;;;;;;17.92;81.79;100004.66;1088306;54;19942;-80
2022/06/13 02:16:26;;;;;;;;;;;;;;;17.86;82.35;100002.69;1088427;54;19942;-82
2022/06/13 02:17:31;;;;;;;;;;;;;;;17.88;82.27;100011.47;1088384;54;19927;-79
2022/06/13 02:18:33;;;;;;;;;;;;;;;17.84;82.38;100012.03;1088404;54;19949;-82
2022/06/13 02:19:40;;;;;;;;;;;;;;;17.81;82.48;100007.00;1088412;54;19943;-78
2022/06/13 02:20:43;;;;;;;;;;;;;;;17.77;82.90;100004.72;1088356;54;19949;-80
2022/06/13 02:21:50;;;;;;;;;;;;;;;17.73;82.95;100005.28;1088373;54;19942;-81
2022/06/13 02:22:54;;;;;;;;;;;;;;;17.71;83.02;100005.47;1088637;46;19947;-82
2022/06/13 02:24:00;;;;;;;;;;;;;;;17.75;82.81;100008.66;1088373;54;19935;-82
2022/06/13 02:25:04;;;;;;;;;;;;;;;17.82;83.19;100008.69;1089377;46;19943;-83
2022/06/13 02:26:11;;;;;;;;;;;;;;;17.74;82.78;100012.38;1088392;54;19939;-83
2022/06/13 02:27:13;;;;;;;;;;;;;;;17.77;82.96;100015.53;1089700;46;19945;-82
2022/06/13 02:28:20;;;;;;;;;;;;;;;17.70;82.96;100019.19;1087864;54;19949;-81
2022/06/13 02:29:26;;;;;;;;;;;;;;;17.70;83.10;100011.06;1087901;54;19943;-84
2022/06/13 02:30:29;;;;;;;;;;;;;;;17.70;83.05;100016.47;1088191;54;19950;-84
2022/06/13 02:31:40;;;;;;;;;;;;;;;17.69;83.24;100014.81;1088331;54;19942;-82
2022/06/13 02:32:46;;;;;;;;;;;;;;;17.68;83.61;100018.53;1088280;54;19966;-82
2022/06/13 02:33:52;;;;;;;;;;;;;;;17.64;83.13;100017.25;1088365;54;19939;-80
2022/06/13 02:34:55;;;;;;;;;;;;;;;17.62;83.88;100015.59;1088328;54;19949;-81
2022/06/13 02:36:02;;;;;;;;;;;;;;;17.59;84.19;100029.47;1088381;54;19983;-82
2022/06/13 02:37:09;;;;;;;;;;;;;;;17.60;84.21;100017.63;1092463;39;20577;-82
2022/06/13 02:38:15;;;;;;;;;;;;;;;17.61;84.39;100026.59;1089524;46;19943;-82
2022/06/13 02:39:23;;;;;;;;;;;;;;;17.68;83.87;100021.25;1088363;54;19943;-83
2022/06/13 02:40:27;;;;;;;;;;;;;;;17.59;84.15;100018.66;1087960;54;19938;-80
2022/06/13 02:41:36;;;;;;;;;;;;;;;17.61;84.34;100024.72;1087836;54;20662;-82
2022/06/13 02:42:40;;;;;;;;;;;;;;;17.67;84.10;100019.56;1087938;54;19942;-83
2022/06/13 02:43:45;;;;;;;;;;;;;;;17.59;84.21;100018.66;1088153;54;19991;-81
2022/06/13 02:44:50;;;;;;;;;;;;;;;17.52;84.74;100019.63;1087716;54;19942;-82
2022/06/13 02:45:53;;;;;;;;;;;;;;;17.50;85.07;100021.69;1087836;54;19950;-78
2022/06/13 02:47:02;;;;;;;;;;;;;;;17.50;85.00;100030.63;1087600;54;19982;-82
2022/06/13 02:48:07;;;;;;;;;;;;;;;17.44;84.86;100034.91;1087989;54;19943;-80
2022/06/13 02:49:14;;;;;;;;;;;;;;;17.45;84.38;100027.66;1087865;54;19986;-80
2022/06/13 02:50:17;;;;;;;;;;;;;;;17.47;84.80;100025.63;1088283;54;19934;-82
2022/06/13 02:51:23;;;;;;;;;;;;;;;17.41;84.94;100026.34;1088287;54;19965;-82
2022/06/13 02:52:27;;;;;;;;;;;;;;;17.41;85.00;100023.66;1088322;54;19943;-83
2022/06/13 02:53:35;;;;;;;;;;;;;;;17.40;84.68;100025.53;1088262;54;19943;-81
2022/06/13 02:54:39;;;;;;;;;;;;;;;17.39;84.72;100023.00;1088706;46;19927;-81
2022/06/13 02:55:45;;;;;;;;;;;;;;;17.37;84.24;100016.97;1088242;54;19935;-83
2022/06/13 02:58:17;;;;;;;;;;;;;;;17.50;83.84;100021.69;1088253;54;19954;-81
2022/06/13 02:59:23;;;;;;;;;;;;;;;17.49;83.39;100017.31;1088242;54;19942;-81
2022/06/13 03:00:33;;;;;;;;;;;;;;;17.49;82.99;100018.13;1088119;54;19942;-83
2022/06/13 03:01:38;;;;;;;;;;;;;;;17.41;82.59;100024.50;1087989;54;19927;-82
2022/06/13 03:02:47;;;;;;;;;;;;;;;17.37;82.62;100022.38;1088002;54;20272;-82
2022/06/13 03:03:57;;;;;;;;;;;;;;;17.35;82.92;100027.94;1087939;54;19954;-83
2022/06/13 03:05:00;;;;;;;;;;;;;;;17.37;82.85;100022.38;1087875;54;19942;-82
2022/06/13 03:06:07;;;;;;;;;;;;;;;17.30;82.29;100028.53;1088563;54;19982;-82
2022/06/13 03:07:11;;;;;;;;;;;;;;;17.30;81.85;100025.81;1093439;46;19939;-82
2022/06/13 03:08:19;;;;;;;;;;;;;;;17.25;82.66;100027.41;1088570;54;19923;-82
2022/06/13 03:09:39;;;;;;;;;;;;;;;17.30;82.73;100033.09;1088390;54;19934;-83
2022/06/13 03:10:49;;;;;;;;;;;;;;;17.27;82.33;100030.78;1089116;47;19937;-83
2022/06/13 03:11:58;;;;;;;;;;;;;;;17.22;82.31;100023.22;1088042;54;19946;-80
2022/06/13 03:13:03;;;;;;;;;;;;;;;17.19;81.81;100026.31;1088616;47;19942;-81
2022/06/13 03:14:15;;;;;;;;;;;;;;;17.15;80.29;100033.13;1088901;46;19955;-83
2022/06/13 03:15:20;;;;;;;;;;;;;;;17.10;78.69;100030.97;1088229;54;19943;-82
2022/06/13 03:16:26;;;;;;;;;;;;;;;17.12;78.36;100036.19;1088340;54;19949;-82
2022/06/13 03:17:36;;;;;;;;;;;;;;;17.12;77.93;100034.34;1088323;54;19934;-83
2022/06/13 03:18:47;;;;;;;;;;;;;;;17.12;78.36;100026.25;1088371;54;19959;-81
2022/06/13 03:19:51;;;;;;;;;;;;;;;17.08;78.52;100026.81;1088242;54;19942;-83
2022/06/13 03:20:57;;;;;;;;;;;;;;;17.10;78.12;100030.97;1087943;54;19949;-82
2022/06/13 03:22:04;;;;;;;;;;;;;;;17.16;77.79;100026.69;1088109;54;20016;-83
2022/06/13 03:23:10;;;;;;;;;;;;;;;17.17;77.46;100033.78;1088080;54;19935;-82
2022/06/13 03:24:16;;;;;;;;;;;;;;;17.02;76.52;100038.34;1087973;46;20280;-82
2022/06/13 03:25:22;;;;;;;;;;;;;;;16.99;77.48;100032.31;1087912;54;19937;-82
2022/06/13 03:26:29;;;;;;;;;;;;;;;17.00;77.61;100038.53;1087916;54;19934;-80
2022/06/13 03:27:33;;;;;;;;;;;;;;;17.00;77.18;100038.53;1087922;54;19942;-81
2022/06/13 03:28:41;;;;;;;;;;;;;;;16.94;75.67;100039.28;1087889;54;19948;-80
2022/06/13 03:29:45;;;;;;;;;;;;;;;16.84;75.58;100042.22;1087821;54;19950;-82
2022/06/13 03:30:51;;;;;;;;;;;;;;;16.76;75.73;100045.88;1087859;54;19943;-79
2022/06/13 03:31:55;;;;;;;;;;;;;;;16.72;75.00;100049.13;1087869;54;19942;-79
2022/06/13 03:34:41;;;;;;;;;;;;;;;16.61;74.54;100045.84;1087598;54;20029;-80
2022/06/13 03:35:46;;;;;;;;;;;;;;;16.56;74.65;100045.56;1088184;47;19996;-78
2022/06/13 03:36:53;;;;;;;;;;;;;;;16.51;74.45;100050.69;1087984;46;19943;-81
2022/06/13 03:37:54;;;;;;;;;;;;;;;16.55;74.75;100051.97;1088866;46;19945;-79
2022/06/13 03:39:00;;;;;;;;;;;;;;;16.47;74.42;100055.59;1087871;54;19941;-80
2022/06/13 03:40:03;;;;;;;;;;;;;;;16.40;74.12;100054.63;1087744;54;19938;-80
2022/06/13 03:41:09;;;;;;;;;;;;;;;16.38;74.62;100046.75;1089268;46;19962;-82
2022/06/13 03:42:12;;;;;;;;;;;;;;;16.32;73.95;100052.03;1088587;47;19955;-79
2022/06/13 03:43:19;;;;;;;;;;;;;;;16.26;74.01;100056.28;1089126;46;19946;-81
2022/06/13 03:44:21;;;;;;;;;;;;;;;16.30;74.38;100049.50;1087866;54;19930;-79
2022/06/13 03:45:28;;;;;;;;;;;;;;;16.26;74.17;100048.19;1087787;54;20655;-83
2022/06/13 03:46:33;;;;;;;;;;;;;;;16.26;73.83;100063.53;1087806;54;19966;-81
2022/06/13 03:47:39;;;;;;;;;;;;;;;16.25;74.06;100061.88;1087816;54;19942;-80
2022/06/13 03:48:42;;;;;;;;;;;;;;;16.24;73.95;100060.19;1087867;54;19946;-80
2022/06/13 03:49:51;;;;;;;;;;;;;;;16.23;74.16;100064.75;1089320;46;19963;-79
2022/06/13 03:50:57;;;;;;;;;;;;;;;16.17;73.77;100065.47;1087802;54;19938;-80
2022/06/13 03:52:00;;;;;;;;;;;;;;;16.30;74.08;100064.84;1087792;54;19935;-79
2022/06/13 03:53:07;;;;;;;;;;;;;;;16.25;73.33;100068.09;1087766;54;20013;-79
2022/06/13 03:54:11;;;;;;;;;;;;;;;16.26;73.57;100069.75;1088829;47;19939;-80
2022/06/13 03:55:18;;;;;;;;;;;;;;;16.26;73.18;100066.25;1087788;54;19939;-81
2022/06/13 03:56:22;;;;;;;;;;;;;;;16.16;73.42;100075.41;1087854;54;19943;-80
2022/06/13 03:57:30;;;;;;;;;;;;;;;16.16;73.10;100063.78;1088430;47;19994;-80
2022/06/13 03:58:35;;;;;;;;;;;;;;;16.15;72.98;100075.63;1087789;54;19938;-80
2022/06/13 03:59:41;;;;;;;;;;;;;;;16.17;73.33;100063.63;1087766;54;19950;-79
2022/06/13 04:00:47;;;;;;;;;;;;;;;16.18;73.41;100073.38;1087417;54;19942;-80
2022/06/13 04:01:54;;;;;;;;;;;;;;;16.15;73.53;100073.75;1087658;54;19943;-82
2022/06/13 04:02:55;;;;;;;;;;;;;;;16.13;73.56;100074.94;1087540;54;19946;-80
2022/06/13 04:04:00;;;;;;;;;;;;;;;16.12;73.68;100084.06;1088366;47;19938;-80
2022/06/13 04:05:07;;;;;;;;;;;;;;;16.13;73.58;100085.72;1087680;54;19962;-81
2022/06/13 04:06:23;;;;;;;;;;;;;;;16.16;73.45;100074.56;1089716;47;19939;-80
2022/06/13 04:07:27;;;;;;;;;;;;;;;16.17;73.21;100092.44;1088338;47;19951;-82
2022/06/13 04:08:31;;;;;;;;;;;;;;;16.26;73.13;100091.34;1087747;54;19938;-80
2022/06/13 04:09:37;;;;;;;;;;;;;;;16.35;72.91;100084.84;1090164;47;19939;-80
2022/06/13 04:10:46;;;;;;;;;;;;;;;16.30;71.96;100094.50;1088370;47;19942;-81
2022/06/13 04:11:56;;;;;;;;;;;;;;;16.31;72.52;100093.50;1087775;54;19950;-81
2022/06/13 04:13:07;;;;;;;;;;;;;;;16.21;72.01;100091.88;1088601;47;19939;-81
2022/06/13 04:14:19;;;;;;;;;;;;;;;16.30;71.76;100092.66;1088206;47;19995;-80
2022/06/13 04:15:29;;;;;;;;;;;;;;;16.33;71.69;100097.72;1087764;54;19945;-83
2022/06/13 04:16:42;;;;;;;;;;;;;;;16.31;71.92;100098.91;1089572;39;20014;-81
2022/06/13 04:17:45;;;;;;;;;;;;;;;16.37;71.78;100096.31;1088875;47;19939;-80
2022/06/13 04:18:58;;;;;;;;;;;;;;;16.37;71.62;100092.78;1089860;47;19991;-79
2022/06/13 04:20:05;;;;;;;;;;;;;;;16.40;71.46;100091.59;1088141;54;19946;-79
2022/06/13 04:21:17;;;;;;;;;;;;;;;16.38;71.47;100098.00;1088348;54;19949;-80
2022/06/13 04:22:40;;;;;;;;;;;;;;;16.37;71.54;100099.00;1088660;54;19931;-80
2022/06/13 04:23:50;;;;;;;;;;;;;;;16.29;70.89;100096.38;1088735;54;19963;-82
2022/06/13 04:24:58;;;;;;;;;;;;;;;16.26;71.16;100096.75;1088924;46;19918;-79
2022/06/13 04:26:03;;;;;;;;;;;;;;;16.28;71.05;100089.31;1088702;54;19923;-82
2022/06/13 04:27:09;;;;;;;;;;;;;;;16.35;70.85;100101.03;1089087;46;19966;-82
2022/06/13 04:28:12;;;;;;;;;;;;;;;16.46;71.01;100101.63;1090368;46;19939;-81
2022/06/13 04:29:25;;;;;;;;;;;;;;;16.54;70.66;100093.47;1088756;54;19935;-82
2022/06/13 04:30:31;;;;;;;;;;;;;;;16.63;70.18;100092.38;1096107;46;19946;-82
2022/06/13 04:31:32;;;;;;;;;;;;;;;16.63;69.88;100105.03;1088680;54;19942;-82
2022/06/13 04:32:40;;;;;;;;;;;;;;;16.66;70.18;100097.41;1088604;46;19939;-82
2022/06/13 04:33:46;;;;;;;;;;;;;;;16.69;70.27;100099.75;1088171;46;19950;-81
2022/06/13 04:34:49;;;;;;;;;;;;;;;16.76;69.88;100101.69;1088078;54;19939;-82
2022/06/13 04:35:53;;;;;;;;;;;;;;;16.80;69.47;100095.75;1088304;54;19945;-82
2022/06/13 04:36:58;;;;;;;;;;;;;;;16.80;68.91;100097.63;1089360;46;19945;-81
2022/06/13 04:38:03;;;;;;;;;;;;;;;16.66;68.14;100102.81;1089905;46;19957;-83
2022/06/13 04:39:07;;;;;;;;;;;;;;;16.62;67.70;100097.97;1088199;54;19938;-84
2022/06/13 04:40:15;;;;;;;;;;;;;;;16.74;67.66;100103.75;1088335;54;20040;-82
2022/06/13 04:41:17;;;;;;;;;;;;;;;16.78;67.25;100096.97;1090339;46;19938;-83
2022/06/13 04:42:21;;;;;;;;;;;;;;;16.82;67.56;100103.66;1088634;46;19943;-83
2022/06/13 04:43:28;;;;;;;;;;;;;;;16.88;67.81;100093.97;1088499;54;19945;-82
2022/06/13 04:44:31;;;;;;;;;;;;;;;16.85;66.91;100106.00;1089580;46;20003;-82
2022/06/13 04:45:44;;;;;;;;;;;;;;;16.86;66.56;100115.78;1088476;54;19947;-83
2022/06/13 04:46:49;;;;;;;;;;;;;;;16.89;66.91;100111.84;1089507;46;19943;-82
2022/06/13 04:47:53;;;;;;;;;;;;;;;16.91;67.53;100116.03;1094620;39;20260;-83
2022/06/13 04:48:56;;;;;;;;;;;;;;;16.91;67.40;100110.66;1088268;54;19946;-82
2022/06/13 04:50:01;;;;;;;;;;;;;;;16.88;67.10;100113.75;1088460;54;19942;-83
2022/06/13 04:51:05;;;;;;;;;;;;;;;16.95;67.26;100113.88;1088637;46;19946;-82
2022/06/13 04:52:13;;;;;;;;;;;;;;;16.96;67.41;100110.97;1088065;54;19942;-83
2022/06/13 04:53:18;;;;;;;;;;;;;;;17.02;67.31;100112.09;1090262;46;20307;-83
2022/06/13 04:54:26;;;;;;;;;;;;;;;17.08;67.16;100115.94;1088155;54;20028;-83
2022/06/13 04:55:31;;;;;;;;;;;;;;;17.08;67.31;100114.03;1089041;46;19947;-82
2022/06/13 04:56:35;;;;;;;;;;;;;;;16.99;66.39;100118.72;1088940;46;20016;-83
2022/06/13 04:57:39;;;;;;;;;;;;;;;17.04;66.55;100120.00;1088496;54;19942;-81
2022/06/13 04:58:42;;;;;;;;;;;;;;;17.08;66.76;100116.75;1088493;54;19950;-81
2022/06/13 04:59:46;;;;;;;;;;;;;;;17.12;66.66;100117.22;1088144;54;19950;-82
2022/06/13 05:00:50;;;;;;;;;;;;;;;17.17;66.28;100122.06;1088472;46;19923;-84
2022/06/13 05:01:54;;;;;;;;;;;;;;;17.19;65.78;100117.31;1088163;54;20674;-82
2022/06/13 05:02:55;;;;;;;;;;;;;;;17.16;65.02;100121.22;1089009;46;19945;-82
2022/06/13 05:04:01;;;;;;;;;;;;;;;17.14;65.08;100126.81;1088288;54;20002;-80
2022/06/13 05:05:04;;;;;;;;;;;;;;;17.11;64.78;100138.00;1089168;46;19933;-81
2022/06/13 05:06:08;;;;;;;;;;;;;;;16.99;64.52;100140.31;1088412;54;19943;-80
2022/06/13 05:07:17;;;;;;;;;;;;;;;16.93;64.84;100137.47;1088086;54;19945;-81
2022/06/13 05:08:22;;;;;;;;;;;;;;;16.97;64.38;100134.25;1089189;39;20192;-81
2022/06/13 05:09:30;;;;;;;;;;;;;;;16.99;64.15;100139.47;1087807;47;19957;-83
2022/06/13 05:10:32;;;;;;;;;;;;;;;17.07;64.27;100141.25;1089579;46;19938;-82
2022/06/13 05:11:38;;;;;;;;;;;;;;;17.19;64.50;100138.91;1087681;54;19946;-81
2022/06/13 05:12:41;;;;;;;;;;;;;;;17.26;64.30;100145.25;1088022;54;19938;-80
2022/06/13 05:13:45;;;;;;;;;;;;;;;17.12;63.70;100149.63;1087990;54;19995;-81
2022/06/13 05:14:50;;;;;;;;;;;;;;;17.20;64.01;100144.13;1089770;46;19946;-80
2022/06/13 05:15:56;;;;;;;;;;;;;;;17.28;64.03;100151.31;1087984;54;19950;-80
2022/06/13 05:17:07;;;;;;;;;;;;;;;17.34;64.57;100152.44;1088515;46;19947;-79
2022/06/13 05:18:16;;;;;;;;;;;;;;;17.37;64.02;100154.78;1088241;46;19938;-80
2022/06/13 05:19:29;;;;;;;;;;;;;;;17.26;63.20;100156.91;1088221;54;19945;-81
2022/06/13 05:20:35;;;;;;;;;;;;;;;17.13;63.99;100165.66;1088733;46;19939;-81
2022/06/13 05:21:44;;;;;;;;;;;;;;;17.25;64.09;100155.22;1088107;54;19939;-81
2022/06/13 05:22:59;;;;;;;;;;;;;;;17.27;63.67;100157.72;1088137;54;19938;-82
2022/06/13 05:24:17;;;;;;;;;;;;;;;17.34;64.07;100158.66;1090231;46;19994;-81
2022/06/13 05:25:32;;;;;;;;;;;;;;;17.41;63.91;100156.06;1088109;54;19945;-79
2022/06/13 05:26:36;;;;;;;;;;;;;;;17.45;63.84;100162.78;1088682;46;19938;-80
2022/06/13 05:27:37;;;;;;;;;;;;;;;17.41;63.44;100153.34;1088021;54;20002;-80
2022/06/13 05:28:41;;;;;;;;;;;;;;;17.33;63.88;100158.84;1087956;54;19962;-79
2022/06/13 05:29:42;;;;;;;;;;;;;;;17.34;63.46;100157.84;1088082;54;19943;-79
2022/06/13 05:30:47;;;;;;;;;;;;;;;17.40;63.92;100163.34;1087939;54;20328;-80
2022/06/13 05:31:48;;;;;;;;;;;;;;;17.36;63.28;100159.31;1087920;54;19943;-80
2022/06/13 05:32:52;;;;;;;;;;;;;;;17.25;63.22;100160.63;1087777;54;19962;-79
2022/06/13 05:33:56;;;;;;;;;;;;;;;17.15;62.64;100170.88;1088174;46;19943;-80
2022/06/13 05:34:57;;;;;;;;;;;;;;;17.20;63.13;100164.91;1088033;54;19942;-80
2022/06/13 05:36:03;;;;;;;;;;;;;;;17.23;62.87;100165.38;1087968;54;19950;-80
2022/06/13 05:37:04;;;;;;;;;;;;;;;17.25;63.34;100159.78;1088027;54;19942;-80
2022/06/13 05:38:14;;;;;;;;;;;;;;;17.22;63.41;100166.41;1088952;46;19949;-80
2022/06/13 05:39:17;;;;;;;;;;;;;;;17.12;63.93;100173.94;1088030;54;19942;-79
2022/06/13 05:40:19;;;;;;;;;;;;;;;17.13;63.78;100172.91;1087952;54;19950;-79
2022/06/13 05:41:23;;;;;;;;;;;;;;;17.17;63.67;100168.81;1088039;54;19949;-79
2022/06/13 05:42:24;;;;;;;;;;;;;;;17.11;63.85;100167.69;1087990;54;19949;-79
2022/06/13 05:43:28;;;;;;;;;;;;;;;17.14;63.73;100172.72;1087988;54;19937;-80